Wetterdaten: Woche 18.02.08 - 24.02.08 (KW8)
Datum Zeit Temperatur Luftfeuchte Luftdruck Niederschlag Wind Richtung Sonnenschein Solar Taupunkt Windchill Windben
18.02.2008 00:00 -4.0 C 84 % 1039.3 hPa 0.0 l/m 0.8 km/h (0 Bft) O-SO 0.00 h 0 W/m -6.3 C -4.0 C 1.6 km/h (1 Bft)
18.02.2008 01:00 -4.4 C 87 % 1038.7 hPa 0.0 l/m 2.2 km/h (1 Bft) O-SO 0.00 h 0 W/m -6.3 C -4.4 C 3.2 km/h (1 Bft)
18.02.2008 02:00 -5.0 C 87 % 1038.2 hPa 0.0 l/m 0.5 km/h (0 Bft) O-SO 0.00 h 0 W/m -6.8 C -5.0 C 1.2 km/h (1 Bft)
18.02.2008 03:00 -5.5 C 88 % 1037.9 hPa 0.0 l/m 1.2 km/h (1 Bft) O-SO 0.00 h 0 W/m -7.2 C -5.5 C 2.1 km/h (1 Bft)
18.02.2008 04:00 -5.7 C 89 % 1037.7 hPa 0.0 l/m 0.6 km/h (0 Bft) O-SO 0.00 h 0 W/m -7.2 C -5.7 C 1.1 km/h (0 Bft)
18.02.2008 05:00 -6.0 C 90 % 1037.6 hPa 0.0 l/m 0.3 km/h (0 Bft) O-SO 0.00 h 0 W/m -7.4 C -6.0 C 0.9 km/h (0 Bft)
18.02.2008 06:00 -6.6 C 90 % 1037.6 hPa 0.0 l/m 1.3 km/h (1 Bft) O-SO 0.00 h 0 W/m -8.0 C -6.6 C 2.2 km/h (1 Bft)
18.02.2008 07:00 -6.6 C 90 % 1037.5 hPa 0.0 l/m 0.9 km/h (0 Bft) O-SO 0.02 h 12 W/m -8.0 C -6.6 C 2.1 km/h (1 Bft)
18.02.2008 08:00 -6.0 C 89 % 1037.7 hPa 0.0 l/m 0.3 km/h (0 Bft) O 0.27 h 76 W/m -7.4 C -6.0 C 0.9 km/h (0 Bft)
18.02.2008 09:00 -3.8 C 84 % 1037.5 hPa 0.0 l/m 0.1 km/h (0 Bft) O 1.00 h 225 W/m -6.1 C -3.8 C 0.3 km/h (0 Bft)
18.02.2008 10:00 -1.5 C 76 % 1037.0 hPa 0.0 l/m 0.2 km/h (0 Bft) O 1.00 h 351 W/m -5.2 C -1.5 C 0.8 km/h (0 Bft)
18.02.2008 11:00 1.3 C 68 % 1036.1 hPa 0.0 l/m 1.3 km/h (1 Bft) N-NW 1.00 h 443 W/m -3.9 C 1.3 C 2.6 km/h (1 Bft)
18.02.2008 12:00 3.7 C 60 % 1034.8 hPa 0.0 l/m 2.5 km/h (1 Bft) NW 1.00 h 486 W/m -3.3 C 3.7 C 4.2 km/h (1 Bft)
18.02.2008 13:00 6.1 C 52 % 1033.6 hPa 0.0 l/m 2.7 km/h (1 Bft) NW 1.00 h 476 W/m -3.1 C 6.0 C 4.7 km/h (1 Bft)
18.02.2008 14:00 8.0 C 44 % 1032.4 hPa 0.0 l/m 3.3 km/h (1 Bft) NW 1.00 h 414 W/m -3.4 C 7.9 C 5.0 km/h (1 Bft)
18.02.2008 15:00 9.4 C 37 % 1031.6 hPa 0.0 l/m 3.3 km/h (1 Bft) NW 1.00 h 309 W/m -4.5 C 9.2 C 5.6 km/h (1 Bft)
18.02.2008 16:00 8.6 C 37 % 1031.3 hPa 0.0 l/m 8.7 km/h (2 Bft) O-SO 1.00 h 170 W/m -5.3 C 7.2 C 11.6 km/h (2 Bft)
18.02.2008 17:00 6.9 C 43 % 1031.1 hPa 0.0 l/m 2.9 km/h (1 Bft) SO 0.63 h 37 W/m -4.7 C 6.8 C 4.4 km/h (1 Bft)
18.02.2008 18:00 4.0 C 54 % 1031.2 hPa 0.0 l/m 2.5 km/h (1 Bft) O 0.00 h 0 W/m -4.5 C 3.7 C 4.0 km/h (1 Bft)
18.02.2008 19:00 1.1 C 67 % 1031.3 hPa 0.0 l/m 1.2 km/h (1 Bft) O 0.00 h 0 W/m -4.4 C 1.1 C 2.2 km/h (1 Bft)
18.02.2008 20:00 -0.3 C 75 % 1031.2 hPa 0.0 l/m 3.0 km/h (1 Bft) O-SO 0.00 h 0 W/m -4.3 C -0.8 C 4.1 km/h (1 Bft)
18.02.2008 21:00 -1.3 C 78 % 1031.3 hPa 0.0 l/m 1.0 km/h (0 Bft) O-SO 0.00 h 0 W/m -4.6 C -1.3 C 1.8 km/h (1 Bft)
18.02.2008 22:00 -1.9 C 81 % 1031.0 hPa 0.0 l/m 0.9 km/h (0 Bft) O-SO 0.00 h 0 W/m -4.6 C -1.9 C 2.0 km/h (1 Bft)
18.02.2008 23:00 -2.3 C 82 % 1030.6 hPa 0.0 l/m 1.6 km/h (1 Bft) O 0.00 h 0 W/m -4.9 C -2.4 C 2.8 km/h (1 Bft)
19.02.2008 00:00 -3.1 C 84 % 1030.1 hPa 0.0 l/m 0.9 km/h (0 Bft) O 0.00 h 0 W/m -5.4 C -3.2 C 1.8 km/h (1 Bft)
19.02.2008 01:00 -3.6 C 86 % 1029.6 hPa 0.0 l/m 0.7 km/h (0 Bft) O 0.00 h 0 W/m -5.6 C -3.6 C 1.3 km/h (1 Bft)
19.02.2008 02:00 -3.8 C 87 % 1028.8 hPa 0.0 l/m 1.8 km/h (1 Bft) O 0.00 h 0 W/m -5.6 C -3.8 C 2.6 km/h (1 Bft)
19.02.2008 03:00 -4.3 C 87 % 1028.4 hPa 0.0 l/m 1.1 km/h (1 Bft) O 0.00 h 0 W/m -6.1 C -4.3 C 1.9 km/h (1 Bft)
19.02.2008 04:00 -4.4 C 87 % 1028.2 hPa 0.0 l/m 0.1 km/h (0 Bft) O 0.00 h 0 W/m -6.2 C -4.4 C 0.4 km/h (0 Bft)
19.02.2008 05:00 -5.0 C 90 % 1028.5 hPa 0.0 l/m 0.2 km/h (0 Bft) O 0.00 h 0 W/m -6.3 C -5.0 C 0.3 km/h (0 Bft)
19.02.2008 06:00 -5.5 C 90 % 1028.7 hPa 0.0 l/m 0.8 km/h (0 Bft) O 0.00 h 0 W/m -6.9 C -5.5 C 1.5 km/h (1 Bft)
19.02.2008 07:00 -5.6 C 90 % 1029.2 hPa 0.0 l/m 0.3 km/h (0 Bft) O 0.02 h 13 W/m -7.0 C -5.6 C 0.7 km/h (0 Bft)
19.02.2008 08:00 -4.7 C 90 % 1029.6 hPa 0.0 l/m 0.2 km/h (0 Bft) O 0.55 h 86 W/m -6.0 C -4.7 C 0.6 km/h (0 Bft)
19.02.2008 09:00 -2.1 C 83 % 1029.4 hPa 0.0 l/m 0.7 km/h (0 Bft) O 1.00 h 231 W/m -4.6 C -2.1 C 1.7 km/h (1 Bft)
19.02.2008 10:00 0.5 C 75 % 1028.7 hPa 0.0 l/m 1.8 km/h (1 Bft) SO 1.00 h 357 W/m -3.4 C 0.4 C 3.6 km/h (1 Bft)
19.02.2008 11:00 3.2 C 67 % 1027.9 hPa 0.0 l/m 2.6 km/h (1 Bft) SO 1.00 h 437 W/m -2.4 C 3.1 C 4.8 km/h (1 Bft)
19.02.2008 12:00 5.7 C 57 % 1026.9 hPa 0.0 l/m 2.1 km/h (1 Bft) SO 1.00 h 480 W/m -2.2 C 5.6 C 4.2 km/h (1 Bft)
19.02.2008 13:00 8.0 C 49 % 1025.7 hPa 0.0 l/m 2.1 km/h (1 Bft) S 1.00 h 458 W/m -2.2 C 8.0 C 4.2 km/h (1 Bft)
19.02.2008 14:00 9.3 C 45 % 1024.9 hPa 0.0 l/m 2.6 km/h (1 Bft) S-SO 1.00 h 400 W/m -2.0 C 9.3 C 5.3 km/h (1 Bft)
19.02.2008 15:00 9.7 C 38 % 1024.2 hPa 0.0 l/m 2.9 km/h (1 Bft) SO 1.00 h 302 W/m -3.9 C 9.7 C 5.2 km/h (1 Bft)
19.02.2008 16:00 9.8 C 34 % 1023.6 hPa 0.0 l/m 2.3 km/h (1 Bft) S-SO 1.00 h 171 W/m -5.4 C 9.8 C 4.2 km/h (1 Bft)
19.02.2008 17:00 7.9 C 46 % 1023.7 hPa 0.0 l/m 1.1 km/h (0 Bft) W 0.45 h 36 W/m -3.2 C 7.8 C 2.1 km/h (1 Bft)
19.02.2008 18:00 3.6 C 63 % 1024.5 hPa 0.0 l/m 2.8 km/h (1 Bft) O-SO 0.00 h 0 W/m -2.8 C 3.3 C 4.1 km/h (1 Bft)
19.02.2008 19:00 1.7 C 70 % 1024.9 hPa 0.0 l/m 2.3 km/h (1 Bft) O-SO 0.00 h 0 W/m -3.2 C 1.7 C 3.6 km/h (1 Bft)
19.02.2008 20:00 0.1 C 76 % 1025.1 hPa 0.0 l/m 1.9 km/h (1 Bft) O 0.00 h 0 W/m -3.7 C 0.1 C 2.7 km/h (1 Bft)
19.02.2008 21:00 -0.8 C 79 % 1025.3 hPa 0.0 l/m 1.3 km/h (1 Bft) O-SO 0.00 h 0 W/m -3.9 C -0.8 C 2.2 km/h (1 Bft)
19.02.2008 22:00 -1.3 C 80 % 1025.2 hPa 0.0 l/m 0.6 km/h (0 Bft) O-SO 0.00 h 0 W/m -4.3 C -1.3 C 1.4 km/h (1 Bft)
19.02.2008 23:00 -2.0 C 84 % 1024.9 hPa 0.0 l/m 0.8 km/h (0 Bft) O-SO 0.00 h 0 W/m -4.4 C -2.0 C 1.5 km/h (1 Bft)
20.02.2008 00:00 -2.5 C 85 % 1024.4 hPa 0.0 l/m 0.4 km/h (0 Bft) O-SO 0.00 h 0 W/m -4.6 C -2.5 C 0.9 km/h (0 Bft)
20.02.2008 01:00 -2.9 C 86 % 1024.2 hPa 0.0 l/m 0.2 km/h (0 Bft) O-SO 0.00 h 0 W/m -4.9 C -2.9 C 0.4 km/h (0 Bft)
20.02.2008 02:00 -3.2 C 87 % 1024.1 hPa 0.0 l/m 0.1 km/h (0 Bft) O-SO 0.00 h 0 W/m -5.1 C -3.2 C 0.3 km/h (0 Bft)
20.02.2008 03:00 -3.5 C 87 % 1023.9 hPa 0.0 l/m 0.6 km/h (0 Bft) O-SO 0.00 h 0 W/m -5.3 C -3.5 C 1.1 km/h (1 Bft)
20.02.2008 04:00 -3.5 C 88 % 1024.0 hPa 0.0 l/m 0.2 km/h (0 Bft) O-SO 0.00 h 0 W/m -5.1 C -3.5 C 0.5 km/h (0 Bft)
20.02.2008 05:00 -4.0 C 90 % 1024.2 hPa 0.0 l/m 0.2 km/h (0 Bft) O-SO 0.00 h 0 W/m -5.3 C -4.0 C 0.5 km/h (0 Bft)
20.02.2008 06:00 -4.1 C 91 % 1024.7 hPa 0.0 l/m 0.0 km/h (0 Bft) N 0.00 h 0 W/m -5.3 C -4.1 C 0.1 km/h (0 Bft)
20.02.2008 07:00 -4.3 C 92 % 1025.1 hPa 0.0 l/m 0.0 km/h (0 Bft) N 0.03 h 14 W/m -5.4 C -4.3 C 0.1 km/h (0 Bft)
20.02.2008 08:00 -3.7 C 92 % 1025.5 hPa 0.0 l/m 0.2 km/h (0 Bft) O-SO 0.28 h 80 W/m -4.7 C -3.7 C 0.4 km/h (0 Bft)
20.02.2008 09:00 -1.8 C 86 % 1025.3 hPa 0.0 l/m 0.1 km/h (0 Bft) O-SO 1.00 h 219 W/m -3.9 C -1.8 C 0.4 km/h (0 Bft)
20.02.2008 10:00 1.3 C 76 % 1024.9 hPa 0.0 l/m 0.4 km/h (0 Bft) O-SO 1.00 h 341 W/m -2.4 C 1.3 C 1.1 km/h (1 Bft)
20.02.2008 11:00 4.5 C 68 % 1024.5 hPa 0.0 l/m 2.3 km/h (1 Bft) O-SO 1.00 h 399 W/m -0.9 C 4.4 C 4.7 km/h (1 Bft)
20.02.2008 12:00 7.8 C 58 % 1023.7 hPa 0.0 l/m 5.2 km/h (1 Bft) S-SO 1.00 h 430 W/m 0.1 C 7.2 C 9.5 km/h (2 Bft)
20.02.2008 13:00 10.1 C 52 % 1023.0 hPa 0.0 l/m 4.1 km/h (1 Bft) S 1.00 h 405 W/m 0.8 C 10.0 C 8.2 km/h (2 Bft)
20.02.2008 14:00 10.3 C 52 % 1022.5 hPa 0.0 l/m 2.9 km/h (1 Bft) S 0.02 h 150 W/m 1.0 C 10.3 C 6.1 km/h (2 Bft)
20.02.2008 15:00 9.2 C 59 % 1022.8 hPa 0.0 l/m 9.1 km/h (2 Bft) W-NW 0.00 h 55 W/m 1.3 C 8.1 C 14.2 km/h (3 Bft)
20.02.2008 16:00 6.9 C 79 % 1023.7 hPa 0.2 l/m 5.0 km/h (1 Bft) W-NW 0.00 h 33 W/m 3.6 C 6.1 C 7.9 km/h (2 Bft)
20.02.2008 17:00 5.9 C 88 % 1024.2 hPa 0.8 l/m 2.3 km/h (1 Bft) NW 0.00 h 9 W/m 4.1 C 5.7 C 4.0 km/h (1 Bft)
20.02.2008 18:00 5.6 C 90 % 1024.7 hPa 0.0 l/m 3.0 km/h (1 Bft) S-SO 0.00 h 0 W/m 4.1 C 5.2 C 4.9 km/h (1 Bft)
20.02.2008 19:00 5.3 C 92 % 1025.2 hPa 0.6 l/m 2.2 km/h (1 Bft) S-SO 0.00 h 0 W/m 4.0 C 5.2 C 4.1 km/h (1 Bft)
20.02.2008 20:00 5.1 C 93 % 1025.3 hPa 0.0 l/m 1.3 km/h (1 Bft) S 0.00 h 0 W/m 4.1 C 5.1 C 2.8 km/h (1 Bft)
20.02.2008 21:00 5.1 C 94 % 1025.6 hPa 0.0 l/m 1.2 km/h (1 Bft) S-SO 0.00 h 0 W/m 4.2 C 5.1 C 3.2 km/h (1 Bft)
20.02.2008 22:00 5.1 C 95 % 1025.6 hPa 0.2 l/m 1.5 km/h (1 Bft) S-SO 0.00 h 0 W/m 4.3 C 5.0 C 3.3 km/h (1 Bft)
20.02.2008 23:00 5.1 C 95 % 1025.4 hPa 0.0 l/m 1.4 km/h (1 Bft) S 0.00 h 0 W/m 4.3 C 5.1 C 3.0 km/h (1 Bft)
21.02.2008 00:00 5.1 C 94 % 1025.2 hPa 0.2 l/m 0.7 km/h (0 Bft) SO 0.00 h 0 W/m 4.3 C 5.1 C 1.9 km/h (1 Bft)
21.02.2008 01:00 5.1 C 94 % 1025.0 hPa 0.0 l/m 1.1 km/h (1 Bft) S-SO 0.00 h 0 W/m 4.3 C 5.1 C 2.8 km/h (1 Bft)
21.02.2008 02:00 5.2 C 93 % 1025.0 hPa 0.0 l/m 1.8 km/h (1 Bft) S-SO 0.00 h 0 W/m 4.1 C 5.2 C 3.1 km/h (1 Bft)
21.02.2008 03:00 5.2 C 91 % 1025.1 hPa 0.0 l/m 1.5 km/h (1 Bft) S-SO 0.00 h 0 W/m 3.9 C 5.2 C 3.2 km/h (1 Bft)
21.02.2008 04:00 5.3 C 90 % 1025.3 hPa 0.0 l/m 1.7 km/h (1 Bft) S-SO 0.00 h 0 W/m 3.8 C 5.2 C 4.1 km/h (1 Bft)
21.02.2008 05:00 5.3 C 91 % 1025.7 hPa 0.0 l/m 1.8 km/h (1 Bft) S 0.00 h 0 W/m 3.9 C 5.3 C 4.0 km/h (1 Bft)
21.02.2008 06:00 5.4 C 90 % 1025.8 hPa 0.0 l/m 1.3 km/h (1 Bft) S-SO 0.00 h 0 W/m 3.9 C 5.4 C 3.1 km/h (1 Bft)
21.02.2008 07:00 5.4 C 90 % 1026.4 hPa 0.0 l/m 1.4 km/h (1 Bft) S-SO 0.02 h 12 W/m 3.9 C 5.4 C 3.4 km/h (1 Bft)
21.02.2008 08:00 5.6 C 90 % 1026.9 hPa 0.0 l/m 1.1 km/h (1 Bft) S 0.00 h 18 W/m 4.1 C 5.6 C 3.1 km/h (1 Bft)
21.02.2008 09:00 6.0 C 90 % 1027.2 hPa 0.0 l/m 1.1 km/h (0 Bft) S 0.00 h 54 W/m 4.5 C 5.9 C 2.9 km/h (1 Bft)
21.02.2008 10:00 6.5 C 89 % 1027.8 hPa 0.0 l/m 0.7 km/h (0 Bft) S-SW 0.00 h 60 W/m 4.8 C 6.5 C 2.0 km/h (1 Bft)
21.02.2008 11:00 7.0 C 88 % 1028.0 hPa 0.0 l/m 1.7 km/h (1 Bft) S-SW 0.00 h 89 W/m 5.1 C 7.0 C 4.3 km/h (1 Bft)
21.02.2008 12:00 7.6 C 86 % 1027.5 hPa 0.0 l/m 2.7 km/h (1 Bft) S 0.00 h 112 W/m 5.4 C 7.5 C 5.6 km/h (1 Bft)
21.02.2008 13:00 7.1 C 92 % 1027.5 hPa 0.2 l/m 2.1 km/h (1 Bft) N-NW 0.00 h 65 W/m 5.8 C 7.0 C 4.0 km/h (1 Bft)
21.02.2008 14:00 6.6 C 98 % 1027.4 hPa 0.4 l/m 0.0 km/h (0 Bft) N-NW 0.00 h 42 W/m 6.3 C 6.6 C 0.2 km/h (0 Bft)
21.02.2008 15:00 6.7 C 99 % 1027.6 hPa 0.0 l/m 0.1 km/h (0 Bft) N-NW 0.00 h 23 W/m 6.6 C 6.7 C 0.1 km/h (0 Bft)
21.02.2008 16:00 6.9 C 100 % 1027.8 hPa 0.0 l/m 0.5 km/h (0 Bft) N-NW 0.00 h 21 W/m 6.9 C 6.9 C 1.5 km/h (1 Bft)
21.02.2008 17:00 7.4 C 100 % 1027.9 hPa 0.2 l/m 2.7 km/h (1 Bft) N-NW 0.00 h 19 W/m 7.4 C 7.2 C 4.9 km/h (1 Bft)
21.02.2008 18:00 7.8 C 97 % 1028.5 hPa 0.0 l/m 9.0 km/h (2 Bft) W 0.00 h 0 W/m 7.4 C 6.3 C 13.6 km/h (3 Bft)
21.02.2008 19:00 7.8 C 93 % 1029.0 hPa 0.0 l/m 7.3 km/h (2 Bft) W 0.00 h 0 W/m 6.8 C 6.7 C 10.4 km/h (2 Bft)
21.02.2008 20:00 7.4 C 94 % 1029.6 hPa 0.0 l/m 2.9 km/h (1 Bft) W-SW 0.00 h 0 W/m 6.5 C 7.2 C 5.0 km/h (1 Bft)
21.02.2008 21:00 7.8 C 92 % 1030.0 hPa 0.0 l/m 7.5 km/h (2 Bft) W-SW 0.00 h 0 W/m 6.5 C 6.6 C 10.5 km/h (2 Bft)
21.02.2008 22:00 7.4 C 91 % 1030.1 hPa 0.0 l/m 3.0 km/h (1 Bft) W-SW 0.00 h 0 W/m 6.0 C 7.1 C 5.7 km/h (1 Bft)
21.02.2008 23:00 6.8 C 91 % 1030.3 hPa 0.0 l/m 1.6 km/h (1 Bft) S-SO 0.00 h 0 W/m 5.5 C 6.8 C 3.3 km/h (1 Bft)
22.02.2008 00:00 5.1 C 95 % 1030.4 hPa 0.0 l/m 1.5 km/h (1 Bft) S-SO 0.00 h 0 W/m 4.4 C 5.0 C 2.9 km/h (1 Bft)
22.02.2008 01:00 4.2 C 97 % 1030.7 hPa 0.0 l/m 4.4 km/h (1 Bft) O-SO 0.00 h 0 W/m 3.8 C 3.4 C 5.8 km/h (1 Bft)
22.02.2008 02:00 3.3 C 99 % 1030.9 hPa 0.0 l/m 1.2 km/h (1 Bft) O-SO 0.00 h 0 W/m 3.1 C 3.3 C 2.0 km/h (1 Bft)
22.02.2008 03:00 3.3 C 99 % 1030.8 hPa 0.0 l/m 1.0 km/h (0 Bft) O-SO 0.00 h 0 W/m 3.2 C 3.3 C 2.0 km/h (1 Bft)
22.02.2008 04:00 3.4 C 100 % 1030.6 hPa 0.0 l/m 3.2 km/h (1 Bft) SO 0.00 h 0 W/m 3.4 C 3.1 C 5.2 km/h (1 Bft)
22.02.2008 05:00 3.3 C 100 % 1030.6 hPa 0.0 l/m 3.9 km/h (1 Bft) SO 0.00 h 0 W/m 3.3 C 3.0 C 6.0 km/h (2 Bft)
22.02.2008 06:00 3.3 C 100 % 1030.6 hPa 0.0 l/m 4.8 km/h (1 Bft) SO 0.00 h 0 W/m 3.3 C 2.4 C 7.0 km/h (2 Bft)
22.02.2008 07:00 3.3 C 100 % 1030.8 hPa 0.0 l/m 5.2 km/h (1 Bft) SO 0.00 h 11 W/m 3.3 C 2.2 C 7.1 km/h (2 Bft)
22.02.2008 08:00 3.5 C 100 % 1031.2 hPa 0.0 l/m 3.1 km/h (1 Bft) SO 0.00 h 45 W/m 3.5 C 3.2 C 5.3 km/h (1 Bft)
22.02.2008 09:00 4.3 C 100 % 1031.3 hPa 0.0 l/m 5.0 km/h (1 Bft) SO 0.00 h 120 W/m 4.3 C 3.4 C 7.6 km/h (2 Bft)
22.02.2008 10:00 6.2 C 97 % 1031.5 hPa 0.0 l/m 1.7 km/h (1 Bft) S-SO 0.22 h 205 W/m 5.7 C 6.1 C 4.2 km/h (1 Bft)
22.02.2008 11:00 7.9 C 87 % 1031.5 hPa 0.0 l/m 2.3 km/h (1 Bft) S 0.45 h 242 W/m 5.9 C 7.8 C 5.0 km/h (1 Bft)
22.02.2008 12:00 9.3 C 81 % 1031.1 hPa 0.0 l/m 1.4 km/h (1 Bft) S 0.00 h 230 W/m 6.2 C 9.3 C 3.5 km/h (1 Bft)
22.02.2008 13:00 10.9 C 74 % 1030.3 hPa 0.0 l/m 1.0 km/h (0 Bft) S 0.95 h 326 W/m 6.5 C 10.9 C 2.7 km/h (1 Bft)
22.02.2008 14:00 12.1 C 69 % 1029.5 hPa 0.0 l/m 5.1 km/h (1 Bft) W-NW 0.68 h 293 W/m 6.6 C 12.1 C 8.1 km/h (2 Bft)
22.02.2008 15:00 12.7 C 63 % 1028.8 hPa 0.0 l/m 9.8 km/h (2 Bft) W 0.72 h 265 W/m 5.9 C 12.7 C 15.0 km/h (3 Bft)
22.02.2008 16:00 12.9 C 57 % 1028.6 hPa 0.0 l/m 11.9 km/h (2 Bft) W 0.95 h 189 W/m 4.7 C 12.9 C 17.6 km/h (3 Bft)
22.02.2008 17:00 11.8 C 62 % 1028.6 hPa 0.0 l/m 8.6 km/h (2 Bft) W 0.07 h 27 W/m 4.8 C 11.8 C 12.7 km/h (3 Bft)
22.02.2008 18:00 10.7 C 67 % 1029.1 hPa 0.0 l/m 6.6 km/h (2 Bft) W 0.00 h 0 W/m 4.9 C 10.7 C 10.1 km/h (2 Bft)
22.02.2008 19:00 10.4 C 71 % 1029.6 hPa 0.0 l/m 10.3 km/h (2 Bft) W 0.00 h 0 W/m 5.4 C 10.4 C 15.4 km/h (3 Bft)
22.02.2008 20:00 10.4 C 71 % 1030.3 hPa 0.0 l/m 8.9 km/h (2 Bft) W 0.00 h 0 W/m 5.3 C 10.4 C 13.9 km/h (3 Bft)
22.02.2008 21:00 10.1 C 68 % 1030.6 hPa 0.0 l/m 6.7 km/h (2 Bft) W 0.00 h 0 W/m 4.5 C 10.1 C 9.3 km/h (2 Bft)
22.02.2008 22:00 9.5 C 70 % 1030.9 hPa 0.0 l/m 0.9 km/h (0 Bft) W 0.00 h 0 W/m 4.3 C 9.5 C 2.8 km/h (1 Bft)
22.02.2008 23:00 9.1 C 71 % 1030.8 hPa 0.0 l/m 1.3 km/h (1 Bft) SW 0.00 h 0 W/m 4.0 C 9.1 C 3.2 km/h (1 Bft)
23.02.2008 00:00 8.6 C 73 % 1031.1 hPa 0.0 l/m 1.3 km/h (1 Bft) SO 0.00 h 0 W/m 4.1 C 8.6 C 2.6 km/h (1 Bft)
23.02.2008 01:00 8.7 C 73 % 1031.1 hPa 0.0 l/m 0.7 km/h (0 Bft) SW 0.00 h 0 W/m 4.1 C 8.6 C 2.4 km/h (1 Bft)
23.02.2008 02:00 8.7 C 73 % 1031.0 hPa 0.0 l/m 0.9 km/h (0 Bft) W-SW 0.00 h 0 W/m 4.1 C 8.7 C 2.7 km/h (1 Bft)
23.02.2008 03:00 8.7 C 73 % 1030.2 hPa 0.0 l/m 2.9 km/h (1 Bft) S 0.00 h 0 W/m 4.2 C 8.6 C 6.1 km/h (2 Bft)
23.02.2008 04:00 8.3 C 75 % 1030.1 hPa 0.0 l/m 1.3 km/h (1 Bft) W-SW 0.00 h 0 W/m 4.1 C 8.3 C 3.3 km/h (1 Bft)
23.02.2008 05:00 8.1 C 75 % 1030.5 hPa 0.0 l/m 2.4 km/h (1 Bft) O-SO 0.00 h 0 W/m 4.0 C 8.0 C 3.6 km/h (1 Bft)
23.02.2008 06:00 7.7 C 77 % 1031.1 hPa 0.0 l/m 2.3 km/h (1 Bft) O-SO 0.00 h 0 W/m 3.9 C 7.4 C 3.3 km/h (1 Bft)
23.02.2008 07:00 7.1 C 81 % 1031.4 hPa 0.0 l/m 3.5 km/h (1 Bft) SO 0.00 h 12 W/m 4.0 C 7.0 C 4.9 km/h (1 Bft)
23.02.2008 08:00 7.8 C 78 % 1031.8 hPa 0.0 l/m 3.0 km/h (1 Bft) S-SO 0.37 h 88 W/m 4.3 C 7.7 C 5.1 km/h (1 Bft)
23.02.2008 09:00 9.6 C 71 % 1031.6 hPa 0.0 l/m 2.0 km/h (1 Bft) W-SW 1.00 h 250 W/m 4.6 C 9.6 C 4.3 km/h (1 Bft)
23.02.2008 10:00 11.3 C 66 % 1031.4 hPa 0.0 l/m 2.8 km/h (1 Bft) S 1.00 h 341 W/m 5.1 C 11.3 C 5.4 km/h (1 Bft)
23.02.2008 11:00 12.8 C 62 % 1030.7 hPa 0.0 l/m 2.7 km/h (1 Bft) S-SO 1.00 h 431 W/m 5.7 C 12.8 C 5.2 km/h (1 Bft)
23.02.2008 12:00 13.9 C 57 % 1029.9 hPa 0.0 l/m 2.8 km/h (1 Bft) SO 1.00 h 474 W/m 5.5 C 13.9 C 5.5 km/h (1 Bft)
23.02.2008 13:00 14.8 C 52 % 1029.1 hPa 0.0 l/m 2.0 km/h (1 Bft) O-SO 1.00 h 480 W/m 5.1 C 14.8 C 4.0 km/h (1 Bft)
23.02.2008 14:00 15.3 C 50 % 1028.3 hPa 0.0 l/m 2.2 km/h (1 Bft) W-NW 1.00 h 412 W/m 4.9 C 15.3 C 3.9 km/h (1 Bft)
23.02.2008 15:00 16.0 C 48 % 1027.7 hPa 0.0 l/m 1.9 km/h (1 Bft) W-NW 1.00 h 313 W/m 4.9 C 16.0 C 3.8 km/h (1 Bft)
23.02.2008 16:00 15.7 C 50 % 1027.2 hPa 0.0 l/m 0.5 km/h (0 Bft) S-SW 1.00 h 176 W/m 5.4 C 15.7 C 1.6 km/h (1 Bft)
23.02.2008 17:00 14.9 C 54 % 1027.1 hPa 0.0 l/m 0.0 km/h (0 Bft) S-SW 0.78 h 47 W/m 5.6 C 14.9 C 0.3 km/h (0 Bft)
23.02.2008 18:00 11.5 C 67 % 1027.3 hPa 0.0 l/m 2.1 km/h (1 Bft) S-SW 0.00 h 5 W/m 5.5 C 11.5 C 3.2 km/h (1 Bft)
23.02.2008 19:00 9.0 C 79 % 1027.5 hPa 0.0 l/m 2.6 km/h (1 Bft) O-SO 0.00 h 0 W/m 5.5 C 8.8 C 3.9 km/h (1 Bft)
23.02.2008 20:00 7.5 C 83 % 1027.4 hPa 0.0 l/m 0.9 km/h (0 Bft) O-SO 0.00 h 0 W/m 4.8 C 7.5 C 1.6 km/h (1 Bft)
23.02.2008 21:00 6.3 C 86 % 1027.2 hPa 0.0 l/m 1.0 km/h (0 Bft) O-SO 0.00 h 0 W/m 4.2 C 6.3 C 1.6 km/h (1 Bft)
23.02.2008 22:00 5.5 C 89 % 1027.0 hPa 0.0 l/m 1.7 km/h (1 Bft) O-SO 0.00 h 0 W/m 3.8 C 5.5 C 2.7 km/h (1 Bft)
23.02.2008 23:00 4.3 C 91 % 1026.9 hPa 0.0 l/m 1.8 km/h (1 Bft) O-SO 0.00 h 0 W/m 2.9 C 4.2 C 2.7 km/h (1 Bft)
24.02.2008 00:00 3.7 C 94 % 1026.7 hPa 0.0 l/m 1.7 km/h (1 Bft) SO 0.00 h 0 W/m 2.7 C 3.6 C 2.6 km/h (1 Bft)
24.02.2008 01:00 3.0 C 94 % 1026.4 hPa 0.0 l/m 2.3 km/h (1 Bft) SO 0.00 h 0 W/m 2.1 C 2.9 C 3.4 km/h (1 Bft)
24.02.2008 02:00 2.7 C 95 % 1026.4 hPa 0.0 l/m 1.7 km/h (1 Bft) O-SO 0.00 h 0 W/m 2.0 C 2.7 C 2.7 km/h (1 Bft)
24.02.2008 03:00 2.0 C 96 % 1026.0 hPa 0.0 l/m 1.6 km/h (1 Bft) O-SO 0.00 h 0 W/m 1.5 C 1.9 C 2.4 km/h (1 Bft)
24.02.2008 04:00 1.5 C 97 % 1026.0 hPa 0.0 l/m 1.0 km/h (0 Bft) O-SO 0.00 h 0 W/m 1.1 C 1.4 C 1.8 km/h (1 Bft)
24.02.2008 05:00 1.3 C 98 % 1026.1 hPa 0.0 l/m 0.6 km/h (0 Bft) O-SO 0.00 h 0 W/m 1.0 C 1.3 C 1.0 km/h (0 Bft)
24.02.2008 06:00 0.8 C 98 % 1026.2 hPa 0.0 l/m 0.1 km/h (0 Bft) O-SO 0.00 h 0 W/m 0.5 C 0.8 C 0.3 km/h (0 Bft)
24.02.2008 07:00 0.4 C 99 % 1026.3 hPa 0.0 l/m 0.0 km/h (0 Bft) N 0.02 h 17 W/m 0.2 C 0.4 C 0.1 km/h (0 Bft)
24.02.2008 08:00 0.6 C 99 % 1026.4 hPa 0.2 l/m 0.0 km/h (0 Bft) N 0.17 h 80 W/m 0.5 C 0.6 C 0.1 km/h (0 Bft)
24.02.2008 09:00 2.2 C 100 % 1026.3 hPa 0.0 l/m 0.0 km/h (0 Bft) O-SO 1.00 h 234 W/m 2.2 C 2.2 C 0.1 km/h (0 Bft)
24.02.2008 10:00 5.6 C 94 % 1025.9 hPa 0.0 l/m 0.4 km/h (0 Bft) O-SO 1.00 h 376 W/m 4.6 C 5.6 C 1.5 km/h (1 Bft)
24.02.2008 11:00 9.9 C 73 % 1025.0 hPa 0.0 l/m 0.8 km/h (0 Bft) O-SO 1.00 h 467 W/m 5.3 C 9.9 C 2.4 km/h (1 Bft)
24.02.2008 12:00 12.8 C 64 % 1024.0 hPa 0.0 l/m 1.6 km/h (1 Bft) O-SO 1.00 h 510 W/m 6.2 C 12.8 C 3.4 km/h (1 Bft)
24.02.2008 13:00 15.3 C 56 % 1022.9 hPa 0.0 l/m 2.5 km/h (1 Bft) W-NW 1.00 h 499 W/m 6.6 C 15.3 C 4.7 km/h (1 Bft)
24.02.2008 14:00 17.3 C 52 % 1021.9 hPa 0.0 l/m 4.5 km/h (1 Bft) S-SO 1.00 h 437 W/m 7.2 C 17.3 C 8.0 km/h (2 Bft)
24.02.2008 15:00 18.6 C 47 % 1021.2 hPa 0.0 l/m 3.8 km/h (1 Bft) W-SW 1.00 h 331 W/m 6.9 C 18.6 C 7.2 km/h (2 Bft)
24.02.2008 16:00 18.5 C 47 % 1020.8 hPa 0.0 l/m 3.3 km/h (1 Bft) S-SW 1.00 h 188 W/m 6.8 C 18.5 C 6.2 km/h (2 Bft)
24.02.2008 17:00 16.6 C 44 % 1021.0 hPa 0.0 l/m 2.7 km/h (1 Bft) W-SW 0.50 h 46 W/m 4.4 C 16.6 C 5.0 km/h (1 Bft)
24.02.2008 18:00 13.5 C 55 % 1021.6 hPa 0.0 l/m 4.7 km/h (1 Bft) O-SO 0.00 h 5 W/m 4.6 C 13.5 C 6.3 km/h (2 Bft)
24.02.2008 19:00 11.2 C 65 % 1022.4 hPa 0.0 l/m 5.6 km/h (1 Bft) O-SO 0.00 h 0 W/m 4.8 C 11.2 C 7.0 km/h (2 Bft)
24.02.2008 20:00 10.1 C 66 % 1023.1 hPa 0.0 l/m 5.2 km/h (1 Bft) O-SO 0.00 h 0 W/m 4.1 C 9.9 C 6.6 km/h (2 Bft)
24.02.2008 21:00 8.5 C 73 % 1023.2 hPa 0.0 l/m 1.5 km/h (1 Bft) O-SO 0.00 h 0 W/m 3.8 C 8.4 C 2.7 km/h (1 Bft)
24.02.2008 22:00 7.3 C 79 % 1023.4 hPa 0.0 l/m 0.5 km/h (0 Bft) O-SO 0.00 h 0 W/m 3.8 C 7.3 C 1.5 km/h (1 Bft)
24.02.2008 23:00 5.5 C 85 % 1023.3 hPa 0.0 l/m 1.3 km/h (1 Bft) O-SO 0.00 h 0 W/m 3.2 C 5.4 C 2.3 km/h (1 Bft)
Min-Datum _ 18.02.08 19.02.08 24.02.08 - 18.02.08 - - - 19.02.08 18.02.08 18.02.08
_ Min-Zeit 06:44 16:10 16:00 - 00:02 - - - 16:10 06:44 00:02
Minimum _ -6.8 C 27 % 1020.8 hPa - 0.0 km/h (0 Bft) - - - -8.4 C -6.8 C 0.0 km/h (0 Bft)
Max-Datum _ 24.02.08 21.02.08 18.02.08 20.02.08 22.02.08 - 18.02.08 20.02.08 24.02.08 24.02.08 20.02.08
_ Max-Zeit 15:38 15:40 00:00 17:15 16:19 - 07:40 12:50 15:07 15:37 15:20
Maximum _ 19.1 C 100 % 1039.6 hPa 0.8 l/m 19.6 km/h
W (3 Bft)
- 0.02 h 575 W/m 7.9 C 19.1 C 26.1 km/h
W-NW (4 Bft)
Durchschnitt _ 4.9 C 79 % 1028.2 hPa #3.0 l/m 2.3 km/h (1 Bft) O-SO #45:09 h 213 W/m 1.1 C 4.8 C 3.9 km/h (1 Bft)
© Kaiko 2008